• Join FlightAware (Why Join?)
  • Login
  • US Flag 
10:02PM EDT


 

Airport Tracker/Info


-or-


 

Live Flight TrackerFlight Track Log ✈ AWE3921 ✈ 09-Apr-2013 ✈ KROC - KDCA

Flight Track Log - Related Links

Times and Time Zones

All times are in EDT time to prevent confusion due to time zone crossing. See the AWE3921 flight status page for this flight to view local times or setup timezone preferences in your user account.

Time Position Orientation Groundspeed Altitude Reporting Facility
EDT Latitude Longitude Course Direction KTS MPH feet Rate Location/Type
12:03PM 43.0975 -77.6972 192° South 163 188 1,400  Level Cleveland Center
12:04PM 43.0356 -77.7200 195° South 239 275 3,500 1,920 Climbing Cleveland Center
12:05PM 42.8456 -77.7167 180° South  Level FlightAware Approximate
12:05PM 42.9669 -77.7289 185° South 270 311 5,500  Level Cleveland Center
12:06PM 42.7555 -77.7389 192° South  Level FlightAware Approximate
12:06PM 42.8878 -77.7297 180° South 281 323 7,600  Level Cleveland Center
12:07PM 42.6657 -77.7653 192° South  Level FlightAware Approximate
12:07PM 42.8089 -77.7417 186° South 293 337 9,900  Level Cleveland Center
12:08PM 42.5759 -77.7922 192° South  Level FlightAware Approximate
12:08PM 42.7239 -77.7625 190° South 293 337 11,400  Level Cleveland Center
12:09PM 42.6369 -77.7861 191° South 311 358 13,900 2,340 Climbing Cleveland Center
12:10PM 42.5519 -77.8125 193° South 316 364 16,100 1,980 Climbing Cleveland Center
12:11PM 42.4544 -77.8308 188° South 331 381 17,900 1,740 Climbing Cleveland Center
12:12PM 42.3614 -77.8575 192° South 336 387 19,600 1,560 Climbing Cleveland Center
12:13PM 42.2639 -77.8811 190° South 346 398 21,100 1,320 Climbing Cleveland Center
12:14PM 42.1644 -77.9050 190° South 358 412 22,300 900 Climbing Cleveland Center
12:15PM 42.0586 -77.9319 191° South 380 437 23,000 300 Climbing Cleveland Center
12:16PM 41.9572 -77.9583 191° South 385 443 23,000  Level Cleveland Center
12:17PM 41.8514 -77.9850 191° South 385 443 23,000  Level Cleveland Center
12:18PM 41.7497 -78.0086 190° South 385 443 23,000  Level Cleveland Center
12:19PM 41.6461 -78.0350 191° South 385 443 23,000  Level Cleveland Center
12:20PM 41.5444 -78.0611 191° South 385 443 23,000  Level Cleveland Center
12:21PM 41.4431 -78.0872 191° South 385 443 23,000  Level Cleveland Center
12:22PM 41.3433 -78.1106 190° South 385 443 23,000  Level Cleveland Center
12:22PM 41.2747 -78.1283 191° South 377 434 23,000  Level New York Center
12:23PM 41.1808 -78.1267 179° South 350 403 23,000  Level New York Center
12:24PM 41.0781 -78.0742 159° South 361 415 23,000  Level New York Center
12:25PM 40.9767 -78.0247 160° South 375 432 23,000 -300 Level New York Center
12:26PM 40.8806 -77.9622 154° Southeast 382 440 22,500 -1,020 Descending New York Center
12:27PM 40.7869 -77.8894 150° Southeast 389 448 21,000 -1,560 Descending New York Center
12:28PM 40.6953 -77.8169 149° Southeast 389 448 19,500 -1,440 Descending New York Center
12:29PM 40.6097 -77.7508 150° Southeast 377 434 18,100 -780 Descending New York Center
12:30PM 40.5278 -77.6878 150° Southeast 356 410 18,000 -60 Descending New York Center
12:31PM 40.4439 -77.6247 150° Southeast 349 402 18,000  Level New York Center
12:32PM 40.3503 -77.5528 150° Southeast 349 402 18,000  Level New York Center
12:33PM 40.2761 -77.4967 150° Southeast 349 402 18,000  Level New York Center
12:34PM 40.1844 -77.4225 148° Southeast 349 402 18,000  Level New York Center
12:35PM 40.1025 -77.3603 150° Southeast 344 396 18,000  Level New York Center
12:36PM 40.0364 -77.3108 150° Southeast 344 396 18,000  Level New York Center
12:37PM 39.9386 -77.2339 149° Southeast 344 396 18,000  Level New York Center
12:38PM 39.8564 -77.1722 150° Southeast 344 396 18,000 -1,020 Level New York Center
12:39PM 39.7700 -77.1103 151° Southeast 352 405 16,100 -1,020 Descending New York Center
12:40PM 39.6839 -77.0431 149° Southeast 357 411 16,000 -600 Descending New York Center
12:42PM 39.5333 -76.9333 151° Southeast 355 409 14,600 -1,560 Descending Potomac TRACON
12:43PM 39.4667 -76.8833 150° Southeast 354 407 12,100 -1,380 Descending Potomac TRACON
12:44PM 39.3833 -76.8167 148° Southeast 351 404 12,000 -300 Descending Potomac TRACON
12:45PM 39.3000 -76.7500 148° Southeast 347 399 11,500 -840 Descending Potomac TRACON
12:46PM 39.2000 -76.6833 153° Southeast 351 404 10,300 -840 Descending Potomac TRACON
12:47PM 39.1333 -76.7000 191° South 289 333 10,000 -180 Descending Potomac TRACON
12:48PM 39.0667 -76.7833 224° Southwest 282 325 10,000 -480 Level Potomac TRACON
12:49PM 39.0167 -76.8500 226° Southwest 279 321 9,000 -900 Descending Potomac TRACON
12:50PM 38.9500 -76.9167 218° Southwest 276 318 8,400 -1,080 Descending Potomac TRACON
12:51PM 38.8833 -76.9500 201° Southwest 289 333 6,900 -1,260 Descending Potomac TRACON
12:52PM 38.8167 -76.9500 180° South 275 316 6,000 -1,020 Descending Potomac TRACON
12:53PM 38.7500 -76.9500 180° South 233 268 5,000 -540 Descending Potomac TRACON
12:54PM 38.6833 -76.9333 169° South 233 268 5,000 -480 Level Potomac TRACON
12:55PM 38.6167 -76.9500 191° South 233 268 4,100 -840 Descending Potomac TRACON
12:56PM 38.6167 -77.0000 270° West 183 211 3,400 -600 Descending Potomac TRACON
12:57PM 38.6500 -77.0333 322° Northwest 174 200 3,000 -480 Descending Potomac TRACON